ADDS METAR Data INFO
IDs: Format: Raw Decoded Include TAF

Data at: 1310 UTC 11 Dec 2017

KHKA 111253Z AUTO 23006KT 10SM CLR 02/M01 A3014 RMK AO2 SLP207 T00171011 $
KHKA 111153Z AUTO 21008KT 10SM CLR 01/M01 A3015 RMK AO2 SLP209 T00111011 10028 20000 56010 $
KHKA 111053Z AUTO 21006KT 10SM CLR 01/M01 A3015 RMK AO2 SLP210 T00061011 $
KHKA 110953Z AUTO 20004KT 10SM CLR 02/M01 A3015 RMK AO2 SLP212 T00171006 $
KHKA 110853Z AUTO 19004KT 10SM CLR 01/M01 A3017 RMK AO2 SLP219 T00111011 $
KHKA 110753Z AUTO 21006KT 10SM CLR 01/M01 A3017 RMK AO2 SLP216 T00111006 $
KHKA 110653Z AUTO 23003KT 10SM CLR 02/00 A3017 RMK AO2 SLP217 T00170000 $
KHKA 110453Z AUTO 23006KT 10SM CLR 04/01 A3018 RMK AO2 SLP221 T00390006
KHKA 110353Z AUTO 26003KT 10SM CLR 06/01 A3018 RMK AO2 SLP220 T00560006
KHKA 110253Z AUTO 23009KT 10SM CLR 06/01 A3017 RMK AO2 SLP216 T00560006 51010
KHKA 110153Z AUTO 21008KT 10SM CLR 04/01 A3016 RMK AO2 SLP215 T00440006
KHKA 110053Z AUTO 21008KT 10SM CLR 06/01 A3016 RMK AO2 SLP213 T00610006
KHKA 102353Z AUTO 21011KT 10SM CLR 08/01 A3014 RMK AO2 SLP207 T00780011 10117 20078 55001
KHKA 102253Z AUTO 21013KT 10SM CLR 09/01 A3013 RMK AO2 SLP204 T00940011
KHKA 102153Z AUTO 21014KT 10SM CLR 11/01 A3013 RMK AO2 SLP205 T01110011
KHKA 102053Z AUTO 22019G24KT 10SM CLR 11/00 A3014 RMK AO2 PK WND 21026/2008 SLP207 T01110000 56020
KHKA 101953Z AUTO 21017G23KT 10SM CLR 11/00 A3014 RMK AO2 PK WND 21027/1938 SLP208 T01110000
KHKA 101853Z AUTO 21020G28KT 10SM CLR 09/M01 A3016 RMK AO2 PK WND 22029/1805 SLP214 T00941006
KHKA 101753Z AUTO 21019G26KT 10SM CLR 08/M01 A3020 RMK AO2 PK WND 22028/1729 SLP227 T00831011 10083 21039 58028
KHKA 101653Z AUTO 21017G24KT 10SM CLR 07/M02 A3023 RMK AO2 SLP239 T00671022
KHKA 101553Z AUTO 22014KT 10SM CLR 04/M02 A3027 RMK AO2 SLP254 T00441022
KHKA 101453Z AUTO 21007KT 10SM CLR 01/M03 A3028 RMK AO2 SLP256 T00111028 53001
KHKA 101353Z AUTO 20005KT 10SM CLR M02/M04 A3028 RMK AO2 SLP254 T10221044
KHKA 101253Z AUTO 21005KT 10SM CLR M04/M06 A3028 RMK AO2 SLP254 T10391056
KHKA 101153Z AUTO 19005KT 10SM CLR M03/M06 A3028 RMK AO2 SLP255 T10331056 11022 21050 58001
KHKA 101053Z AUTO 19005KT 10SM CLR M03/M06 A3028 RMK AO2 SLP256 T10331056
KHKA 100953Z AUTO 19003KT 10SM CLR M05/M06 A3028 RMK AO2 SLP257 T10501061
KHKA 100853Z AUTO 00000KT 10SM CLR M03/M06 A3028 RMK AO2 SLP257 T10331056 52003
KHKA 100753Z AUTO 35005KT 10SM CLR M03/M06 A3028 RMK AO2 SLP255 T10331056
KHKA 100653Z AUTO 34005KT 10SM CLR M03/M06 A3028 RMK AO2 SLP255 T10331061
KHKA 100553Z AUTO 33004KT 10SM CLR M02/M06 A3027 RMK AO2 SLP253 T10221056 10017 21022 400831039 53014
KHKA 100453Z AUTO 30005KT 10SM CLR M01/M06 A3026 RMK AO2 SLP248 T10061056
KHKA 100353Z AUTO 32007KT 10SM CLR M01/M05 A3024 RMK AO2 SLP243 T10111050
KHKA 100253Z AUTO 29005KT 10SM CLR 01/M04 A3023 RMK AO2 SLP239 T00061044 51015
KHKA 100153Z AUTO 28004KT 10SM CLR 00/M04 A3022 RMK AO2 SLP234 T00001039